sensor_id;sensor_type;location;lat;lon;timestamp;P1;durP1;ratioP1;P2;durP2;ratioP2
26335;SDS011;14047;50.936;4.654;2024-02-16T00:00:27;3.25;;;2.10;;
26335;SDS011;14047;50.936;4.654;2024-02-16T00:02:53;4.13;;;1.95;;
26335;SDS011;14047;50.936;4.654;2024-02-16T00:05:19;4.22;;;1.80;;
26335;SDS011;14047;50.936;4.654;2024-02-16T00:07:44;4.30;;;2.00;;
26335;SDS011;14047;50.936;4.654;2024-02-16T00:10:11;5.03;;;2.00;;
26335;SDS011;14047;50.936;4.654;2024-02-16T00:12:40;4.32;;;1.67;;
26335;SDS011;14047;50.936;4.654;2024-02-16T00:15:07;3.45;;;1.90;;
26335;SDS011;14047;50.936;4.654;2024-02-16T00:17:33;4.22;;;1.80;;
26335;SDS011;14047;50.936;4.654;2024-02-16T00:19:59;5.93;;;1.85;;
26335;SDS011;14047;50.936;4.654;2024-02-16T00:22:25;4.78;;;2.05;;
26335;SDS011;14047;50.936;4.654;2024-02-16T00:24:51;6.03;;;1.77;;
26335;SDS011;14047;50.936;4.654;2024-02-16T00:27:17;7.05;;;2.35;;
26335;SDS011;14047;50.936;4.654;2024-02-16T00:29:44;4.22;;;1.80;;
26335;SDS011;14047;50.936;4.654;2024-02-16T00:32:13;3.97;;;1.85;;
26335;SDS011;14047;50.936;4.654;2024-02-16T00:34:40;6.05;;;1.90;;
26335;SDS011;14047;50.936;4.654;2024-02-16T00:37:06;4.75;;;1.70;;
26335;SDS011;14047;50.936;4.654;2024-02-16T00:39:37;4.47;;;1.90;;
26335;SDS011;14047;50.936;4.654;2024-02-16T00:42:06;3.88;;;1.80;;
26335;SDS011;14047;50.936;4.654;2024-02-16T00:44:32;4.28;;;1.90;;
26335;SDS011;14047;50.936;4.654;2024-02-16T00:46:58;3.78;;;1.75;;
26335;SDS011;14047;50.936;4.654;2024-02-16T00:49:24;3.67;;;1.88;;
26335;SDS011;14047;50.936;4.654;2024-02-16T00:51:50;4.25;;;1.92;;
26335;SDS011;14047;50.936;4.654;2024-02-16T00:54:16;4.53;;;1.95;;
26335;SDS011;14047;50.936;4.654;2024-02-16T00:56:43;4.55;;;2.33;;
26335;SDS011;14047;50.936;4.654;2024-02-16T00:59:09;4.07;;;2.03;;
26335;SDS011;14047;50.936;4.654;2024-02-16T01:01:38;4.43;;;2.08;;
26335;SDS011;14047;50.936;4.654;2024-02-16T01:04:04;2.80;;;1.80;;
26335;SDS011;14047;50.936;4.654;2024-02-16T01:06:32;3.50;;;1.90;;
26335;SDS011;14047;50.936;4.654;2024-02-16T01:08:58;4.93;;;2.05;;
26335;SDS011;14047;50.936;4.654;2024-02-16T01:11:24;5.03;;;1.98;;
26335;SDS011;14047;50.936;4.654;2024-02-16T01:13:52;5.88;;;2.42;;
26335;SDS011;14047;50.936;4.654;2024-02-16T01:16:17;5.65;;;1.80;;
26335;SDS011;14047;50.936;4.654;2024-02-16T01:18:44;3.45;;;1.65;;
26335;SDS011;14047;50.936;4.654;2024-02-16T01:21:10;5.28;;;1.80;;
26335;SDS011;14047;50.936;4.654;2024-02-16T01:23:36;2.67;;;1.85;;
26335;SDS011;14047;50.936;4.654;2024-02-16T01:26:02;4.95;;;2.10;;
26335;SDS011;14047;50.936;4.654;2024-02-16T01:28:29;6.68;;;2.20;;
26335;SDS011;14047;50.936;4.654;2024-02-16T01:30:55;4.32;;;2.22;;
26335;SDS011;14047;50.936;4.654;2024-02-16T01:33:21;2.75;;;1.85;;
26335;SDS011;14047;50.936;4.654;2024-02-16T01:35:48;3.95;;;2.10;;
26335;SDS011;14047;50.936;4.654;2024-02-16T01:38:14;4.65;;;2.35;;
26335;SDS011;14047;50.936;4.654;2024-02-16T01:40:39;4.57;;;1.95;;
26335;SDS011;14047;50.936;4.654;2024-02-16T01:43:05;3.00;;;1.63;;
26335;SDS011;14047;50.936;4.654;2024-02-16T01:45:31;3.42;;;2.20;;
26335;SDS011;14047;50.936;4.654;2024-02-16T01:47:57;4.95;;;1.77;;
26335;SDS011;14047;50.936;4.654;2024-02-16T01:50:24;4.65;;;1.88;;
26335;SDS011;14047;50.936;4.654;2024-02-16T01:52:51;4.32;;;1.90;;
26335;SDS011;14047;50.936;4.654;2024-02-16T01:55:18;3.70;;;1.90;;
26335;SDS011;14047;50.936;4.654;2024-02-16T01:57:46;4.20;;;1.58;;
26335;SDS011;14047;50.936;4.654;2024-02-16T02:00:14;3.22;;;1.98;;
26335;SDS011;14047;50.936;4.654;2024-02-16T02:02:43;3.40;;;2.15;;
26335;SDS011;14047;50.936;4.654;2024-02-16T02:05:10;6.80;;;2.35;;
26335;SDS011;14047;50.936;4.654;2024-02-16T02:07:37;5.97;;;1.95;;
26335;SDS011;14047;50.936;4.654;2024-02-16T02:10:03;4.63;;;2.13;;
26335;SDS011;14047;50.936;4.654;2024-02-16T02:12:30;3.97;;;2.00;;
26335;SDS011;14047;50.936;4.654;2024-02-16T02:14:56;2.83;;;1.73;;
26335;SDS011;14047;50.936;4.654;2024-02-16T02:17:22;4.45;;;2.13;;
26335;SDS011;14047;50.936;4.654;2024-02-16T02:19:48;4.82;;;1.73;;
26335;SDS011;14047;50.936;4.654;2024-02-16T02:22:15;4.63;;;1.80;;
26335;SDS011;14047;50.936;4.654;2024-02-16T02:24:43;4.47;;;2.10;;
26335;SDS011;14047;50.936;4.654;2024-02-16T02:27:10;3.13;;;2.00;;
26335;SDS011;14047;50.936;4.654;2024-02-16T02:29:36;3.80;;;1.90;;
26335;SDS011;14047;50.936;4.654;2024-02-16T02:32:01;6.80;;;2.20;;
26335;SDS011;14047;50.936;4.654;2024-02-16T02:34:27;7.43;;;2.13;;
26335;SDS011;14047;50.936;4.654;2024-02-16T02:36:53;7.50;;;1.98;;
26335;SDS011;14047;50.936;4.654;2024-02-16T02:39:19;7.35;;;2.25;;
26335;SDS011;14047;50.936;4.654;2024-02-16T02:41:45;4.80;;;1.80;;
26335;SDS011;14047;50.936;4.654;2024-02-16T02:44:11;3.85;;;1.85;;
26335;SDS011;14047;50.936;4.654;2024-02-16T02:46:37;5.57;;;1.80;;
26335;SDS011;14047;50.936;4.654;2024-02-16T02:49:03;4.47;;;1.98;;
26335;SDS011;14047;50.936;4.654;2024-02-16T02:51:29;4.35;;;1.83;;
26335;SDS011;14047;50.936;4.654;2024-02-16T02:53:55;3.10;;;1.55;;
26335;SDS011;14047;50.936;4.654;2024-02-16T02:56:21;3.83;;;1.85;;
26335;SDS011;14047;50.936;4.654;2024-02-16T02:58:47;3.75;;;2.30;;
26335;SDS011;14047;50.936;4.654;2024-02-16T03:01:13;6.22;;;2.00;;
26335;SDS011;14047;50.936;4.654;2024-02-16T03:03:40;3.20;;;2.08;;
26335;SDS011;14047;50.936;4.654;2024-02-16T03:06:06;7.00;;;1.95;;
26335;SDS011;14047;50.936;4.654;2024-02-16T03:08:33;2.95;;;1.85;;
26335;SDS011;14047;50.936;4.654;2024-02-16T03:11:00;3.92;;;2.15;;
26335;SDS011;14047;50.936;4.654;2024-02-16T03:13:26;2.63;;;1.70;;
26335;SDS011;14047;50.936;4.654;2024-02-16T03:15:52;6.07;;;2.08;;
26335;SDS011;14047;50.936;4.654;2024-02-16T03:18:19;3.65;;;1.92;;
26335;SDS011;14047;50.936;4.654;2024-02-16T03:20:48;5.05;;;2.30;;
26335;SDS011;14047;50.936;4.654;2024-02-16T03:23:15;5.72;;;2.25;;
26335;SDS011;14047;50.936;4.654;2024-02-16T03:25:41;3.15;;;1.80;;
26335;SDS011;14047;50.936;4.654;2024-02-16T03:28:09;3.85;;;2.00;;
26335;SDS011;14047;50.936;4.654;2024-02-16T03:30:37;5.32;;;2.20;;
26335;SDS011;14047;50.936;4.654;2024-02-16T03:33:04;6.47;;;1.85;;
26335;SDS011;14047;50.936;4.654;2024-02-16T03:35:30;6.43;;;2.28;;
26335;SDS011;14047;50.936;4.654;2024-02-16T03:37:56;9.63;;;2.08;;
26335;SDS011;14047;50.936;4.654;2024-02-16T03:40:23;3.85;;;2.05;;
26335;SDS011;14047;50.936;4.654;2024-02-16T03:42:50;6.40;;;2.20;;
26335;SDS011;14047;50.936;4.654;2024-02-16T03:45:16;7.68;;;2.00;;
26335;SDS011;14047;50.936;4.654;2024-02-16T03:47:42;7.13;;;2.28;;
26335;SDS011;14047;50.936;4.654;2024-02-16T03:50:09;7.50;;;1.77;;
26335;SDS011;14047;50.936;4.654;2024-02-16T03:52:36;8.00;;;2.00;;
26335;SDS011;14047;50.936;4.654;2024-02-16T03:55:02;5.35;;;2.30;;
26335;SDS011;14047;50.936;4.654;2024-02-16T03:57:30;5.28;;;2.30;;
26335;SDS011;14047;50.936;4.654;2024-02-16T03:59:56;7.00;;;2.10;;
26335;SDS011;14047;50.936;4.654;2024-02-16T04:02:22;4.30;;;2.30;;
26335;SDS011;14047;50.936;4.654;2024-02-16T04:04:49;5.22;;;2.28;;
26335;SDS011;14047;50.936;4.654;2024-02-16T04:07:16;8.27;;;2.50;;
26335;SDS011;14047;50.936;4.654;2024-02-16T04:09:42;7.28;;;2.45;;
26335;SDS011;14047;50.936;4.654;2024-02-16T04:12:08;5.00;;;2.10;;
26335;SDS011;14047;50.936;4.654;2024-02-16T04:14:35;4.65;;;2.00;;
26335;SDS011;14047;50.936;4.654;2024-02-16T04:17:01;5.00;;;1.90;;
26335;SDS011;14047;50.936;4.654;2024-02-16T04:19:28;7.95;;;1.95;;
26335;SDS011;14047;50.936;4.654;2024-02-16T04:21:54;6.95;;;2.67;;
26335;SDS011;14047;50.936;4.654;2024-02-16T04:24:20;3.72;;;2.33;;
26335;SDS011;14047;50.936;4.654;2024-02-16T04:26:46;4.10;;;2.20;;
26335;SDS011;14047;50.936;4.654;2024-02-16T04:29:13;4.68;;;2.45;;
26335;SDS011;14047;50.936;4.654;2024-02-16T04:31:39;7.05;;;2.20;;
26335;SDS011;14047;50.936;4.654;2024-02-16T04:34:10;7.85;;;2.53;;
26335;SDS011;14047;50.936;4.654;2024-02-16T04:36:37;6.30;;;2.72;;
26335;SDS011;14047;50.936;4.654;2024-02-16T04:39:03;5.32;;;2.17;;
26335;SDS011;14047;50.936;4.654;2024-02-16T04:41:29;4.28;;;2.05;;
26335;SDS011;14047;50.936;4.654;2024-02-16T04:43:55;4.25;;;1.95;;
26335;SDS011;14047;50.936;4.654;2024-02-16T04:46:21;3.55;;;2.20;;
26335;SDS011;14047;50.936;4.654;2024-02-16T04:48:47;4.57;;;2.53;;
26335;SDS011;14047;50.936;4.654;2024-02-16T04:51:13;6.03;;;2.10;;
26335;SDS011;14047;50.936;4.654;2024-02-16T04:53:39;7.07;;;2.42;;
26335;SDS011;14047;50.936;4.654;2024-02-16T04:56:05;3.28;;;1.80;;
26335;SDS011;14047;50.936;4.654;2024-02-16T04:58:31;7.80;;;2.65;;
26335;SDS011;14047;50.936;4.654;2024-02-16T05:00:57;4.97;;;2.30;;
26335;SDS011;14047;50.936;4.654;2024-02-16T05:03:23;5.15;;;2.45;;
26335;SDS011;14047;50.936;4.654;2024-02-16T05:05:50;5.88;;;2.10;;
26335;SDS011;14047;50.936;4.654;2024-02-16T05:08:17;7.03;;;1.88;;
26335;SDS011;14047;50.936;4.654;2024-02-16T05:10:43;4.68;;;2.10;;
26335;SDS011;14047;50.936;4.654;2024-02-16T05:13:09;8.93;;;2.50;;
26335;SDS011;14047;50.936;4.654;2024-02-16T05:15:37;6.78;;;2.28;;
26335;SDS011;14047;50.936;4.654;2024-02-16T05:18:03;5.35;;;2.28;;
26335;SDS011;14047;50.936;4.654;2024-02-16T05:20:29;4.05;;;1.92;;
26335;SDS011;14047;50.936;4.654;2024-02-16T05:22:55;8.95;;;2.38;;
26335;SDS011;14047;50.936;4.654;2024-02-16T05:25:22;6.18;;;2.58;;
26335;SDS011;14047;50.936;4.654;2024-02-16T05:27:48;5.07;;;2.40;;
26335;SDS011;14047;50.936;4.654;2024-02-16T05:30:14;6.63;;;2.47;;
26335;SDS011;14047;50.936;4.654;2024-02-16T05:32:41;6.28;;;2.42;;
26335;SDS011;14047;50.936;4.654;2024-02-16T05:35:07;4.40;;;2.03;;
26335;SDS011;14047;50.936;4.654;2024-02-16T05:37:41;2.90;;;1.92;;
26335;SDS011;14047;50.936;4.654;2024-02-16T05:40:10;7.63;;;2.47;;
26335;SDS011;14047;50.936;4.654;2024-02-16T05:42:56;4.07;;;1.95;;
26335;SDS011;14047;50.936;4.654;2024-02-16T05:45:26;5.00;;;2.50;;
26335;SDS011;14047;50.936;4.654;2024-02-16T05:47:52;4.80;;;2.10;;
26335;SDS011;14047;50.936;4.654;2024-02-16T05:50:19;5.88;;;2.90;;
26335;SDS011;14047;50.936;4.654;2024-02-16T05:52:46;4.30;;;2.67;;
26335;SDS011;14047;50.936;4.654;2024-02-16T05:55:12;6.35;;;2.28;;
26335;SDS011;14047;50.936;4.654;2024-02-16T05:57:41;8.68;;;2.30;;
26335;SDS011;14047;50.936;4.654;2024-02-16T06:00:07;3.78;;;2.10;;
26335;SDS011;14047;50.936;4.654;2024-02-16T06:02:34;9.52;;;2.35;;
26335;SDS011;14047;50.936;4.654;2024-02-16T06:05:01;5.63;;;2.38;;
26335;SDS011;14047;50.936;4.654;2024-02-16T06:07:28;5.10;;;2.65;;
26335;SDS011;14047;50.936;4.654;2024-02-16T06:09:55;9.63;;;2.50;;
26335;SDS011;14047;50.936;4.654;2024-02-16T06:12:21;5.50;;;2.10;;
26335;SDS011;14047;50.936;4.654;2024-02-16T06:14:48;6.30;;;2.30;;
26335;SDS011;14047;50.936;4.654;2024-02-16T06:17:14;6.93;;;2.10;;
26335;SDS011;14047;50.936;4.654;2024-02-16T06:19:43;5.13;;;2.40;;
26335;SDS011;14047;50.936;4.654;2024-02-16T06:22:09;3.70;;;2.20;;
26335;SDS011;14047;50.936;4.654;2024-02-16T06:24:36;4.72;;;2.60;;
26335;SDS011;14047;50.936;4.654;2024-02-16T06:27:02;10.65;;;2.33;;
26335;SDS011;14047;50.936;4.654;2024-02-16T06:29:29;5.38;;;2.42;;
26335;SDS011;14047;50.936;4.654;2024-02-16T06:31:56;7.68;;;2.35;;
26335;SDS011;14047;50.936;4.654;2024-02-16T06:34:22;4.95;;;2.17;;
26335;SDS011;14047;50.936;4.654;2024-02-16T06:36:48;9.60;;;2.78;;
26335;SDS011;14047;50.936;4.654;2024-02-16T06:39:15;5.20;;;2.42;;
26335;SDS011;14047;50.936;4.654;2024-02-16T06:41:45;5.97;;;2.25;;
26335;SDS011;14047;50.936;4.654;2024-02-16T06:44:12;8.52;;;2.55;;
26335;SDS011;14047;50.936;4.654;2024-02-16T06:46:39;4.07;;;2.05;;
26335;SDS011;14047;50.936;4.654;2024-02-16T06:49:05;6.03;;;2.85;;
26335;SDS011;14047;50.936;4.654;2024-02-16T06:51:32;6.15;;;2.28;;
26335;SDS011;14047;50.936;4.654;2024-02-16T06:53:58;7.00;;;2.83;;
26335;SDS011;14047;50.936;4.654;2024-02-16T06:56:24;6.35;;;2.13;;
26335;SDS011;14047;50.936;4.654;2024-02-16T06:58:50;5.35;;;2.63;;
26335;SDS011;14047;50.936;4.654;2024-02-16T07:01:16;7.15;;;3.10;;
26335;SDS011;14047;50.936;4.654;2024-02-16T07:03:45;5.22;;;2.65;;
26335;SDS011;14047;50.936;4.654;2024-02-16T07:06:12;8.57;;;2.70;;
26335;SDS011;14047;50.936;4.654;2024-02-16T07:08:42;10.38;;;2.42;;
26335;SDS011;14047;50.936;4.654;2024-02-16T07:11:09;8.70;;;2.40;;
26335;SDS011;14047;50.936;4.654;2024-02-16T07:13:39;9.90;;;2.70;;
26335;SDS011;14047;50.936;4.654;2024-02-16T07:16:06;10.27;;;2.75;;
26335;SDS011;14047;50.936;4.654;2024-02-16T07:18:32;5.97;;;2.60;;
26335;SDS011;14047;50.936;4.654;2024-02-16T07:20:59;6.65;;;2.35;;
26335;SDS011;14047;50.936;4.654;2024-02-16T07:23:25;6.72;;;2.50;;
26335;SDS011;14047;50.936;4.654;2024-02-16T07:25:51;12.00;;;2.70;;
26335;SDS011;14047;50.936;4.654;2024-02-16T07:28:20;8.85;;;2.13;;
26335;SDS011;14047;50.936;4.654;2024-02-16T07:30:47;5.50;;;2.50;;
26335;SDS011;14047;50.936;4.654;2024-02-16T07:33:12;6.28;;;2.90;;
26335;SDS011;14047;50.936;4.654;2024-02-16T07:35:38;10.23;;;2.85;;
26335;SDS011;14047;50.936;4.654;2024-02-16T07:38:05;6.38;;;2.50;;
26335;SDS011;14047;50.936;4.654;2024-02-16T07:40:31;6.07;;;2.83;;
26335;SDS011;14047;50.936;4.654;2024-02-16T07:42:57;12.02;;;3.15;;
26335;SDS011;14047;50.936;4.654;2024-02-16T07:45:23;6.43;;;2.78;;
26335;SDS011;14047;50.936;4.654;2024-02-16T07:47:49;4.93;;;2.97;;
26335;SDS011;14047;50.936;4.654;2024-02-16T07:50:22;15.15;;;2.60;;
26335;SDS011;14047;50.936;4.654;2024-02-16T07:52:48;11.55;;;3.10;;
26335;SDS011;14047;50.936;4.654;2024-02-16T07:55:15;8.15;;;3.00;;
26335;SDS011;14047;50.936;4.654;2024-02-16T07:57:46;7.60;;;2.67;;
26335;SDS011;14047;50.936;4.654;2024-02-16T08:00:12;7.85;;;2.70;;
26335;SDS011;14047;50.936;4.654;2024-02-16T08:02:38;10.05;;;3.13;;
26335;SDS011;14047;50.936;4.654;2024-02-16T08:05:05;8.68;;;2.78;;
26335;SDS011;14047;50.936;4.654;2024-02-16T08:07:34;6.35;;;2.65;;
26335;SDS011;14047;50.936;4.654;2024-02-16T08:10:00;10.50;;;2.95;;
26335;SDS011;14047;50.936;4.654;2024-02-16T08:12:26;8.30;;;3.10;;
26335;SDS011;14047;50.936;4.654;2024-02-16T08:14:53;8.77;;;2.80;;
26335;SDS011;14047;50.936;4.654;2024-02-16T08:17:19;7.88;;;2.30;;
26335;SDS011;14047;50.936;4.654;2024-02-16T08:19:51;5.55;;;2.90;;
26335;SDS011;14047;50.936;4.654;2024-02-16T08:22:21;6.60;;;2.42;;
26335;SDS011;14047;50.936;4.654;2024-02-16T08:24:47;6.38;;;2.63;;
26335;SDS011;14047;50.936;4.654;2024-02-16T08:27:15;10.30;;;2.90;;
26335;SDS011;14047;50.936;4.654;2024-02-16T08:29:42;6.25;;;3.05;;
26335;SDS011;14047;50.936;4.654;2024-02-16T08:32:08;7.45;;;2.65;;
26335;SDS011;14047;50.936;4.654;2024-02-16T08:34:35;8.23;;;2.78;;
26335;SDS011;14047;50.936;4.654;2024-02-16T08:37:05;8.70;;;2.97;;
26335;SDS011;14047;50.936;4.654;2024-02-16T08:39:31;7.35;;;2.63;;
26335;SDS011;14047;50.936;4.654;2024-02-16T08:41:59;11.88;;;3.10;;
26335;SDS011;14047;50.936;4.654;2024-02-16T08:44:25;7.20;;;2.72;;
26335;SDS011;14047;50.936;4.654;2024-02-16T08:46:51;11.80;;;3.60;;
26335;SDS011;14047;50.936;4.654;2024-02-16T08:49:18;9.60;;;2.95;;
26335;SDS011;14047;50.936;4.654;2024-02-16T08:51:45;7.05;;;2.50;;
26335;SDS011;14047;50.936;4.654;2024-02-16T08:54:10;9.90;;;3.35;;
26335;SDS011;14047;50.936;4.654;2024-02-16T08:56:36;7.70;;;3.38;;
26335;SDS011;14047;50.936;4.654;2024-02-16T08:59:04;15.70;;;2.88;;
26335;SDS011;14047;50.936;4.654;2024-02-16T09:01:31;8.38;;;2.92;;
26335;SDS011;14047;50.936;4.654;2024-02-16T09:04:00;10.70;;;3.00;;
26335;SDS011;14047;50.936;4.654;2024-02-16T09:06:27;8.57;;;3.53;;
26335;SDS011;14047;50.936;4.654;2024-02-16T09:08:53;7.78;;;3.05;;
26335;SDS011;14047;50.936;4.654;2024-02-16T09:11:20;12.50;;;3.85;;
26335;SDS011;14047;50.936;4.654;2024-02-16T09:13:46;8.07;;;3.53;;
26335;SDS011;14047;50.936;4.654;2024-02-16T09:16:12;9.70;;;3.15;;
26335;SDS011;14047;50.936;4.654;2024-02-16T09:18:38;7.72;;;3.28;;
26335;SDS011;14047;50.936;4.654;2024-02-16T09:21:04;8.02;;;3.40;;
26335;SDS011;14047;50.936;4.654;2024-02-16T09:23:32;8.43;;;3.40;;
26335;SDS011;14047;50.936;4.654;2024-02-16T09:26:00;14.07;;;3.90;;
26335;SDS011;14047;50.936;4.654;2024-02-16T09:28:27;6.72;;;3.03;;
26335;SDS011;14047;50.936;4.654;2024-02-16T09:30:54;9.80;;;3.20;;
26335;SDS011;14047;50.936;4.654;2024-02-16T09:33:21;11.07;;;3.63;;
26335;SDS011;14047;50.936;4.654;2024-02-16T09:35:49;11.73;;;3.42;;
26335;SDS011;14047;50.936;4.654;2024-02-16T09:38:16;8.55;;;3.80;;
26335;SDS011;14047;50.936;4.654;2024-02-16T09:40:43;8.35;;;3.60;;
26335;SDS011;14047;50.936;4.654;2024-02-16T09:43:09;10.70;;;3.88;;
26335;SDS011;14047;50.936;4.654;2024-02-16T09:45:35;14.00;;;4.35;;
26335;SDS011;14047;50.936;4.654;2024-02-16T09:48:02;7.88;;;3.38;;
26335;SDS011;14047;50.936;4.654;2024-02-16T09:50:35;7.80;;;3.78;;
26335;SDS011;14047;50.936;4.654;2024-02-16T09:53:01;9.07;;;3.20;;
26335;SDS011;14047;50.936;4.654;2024-02-16T09:55:31;8.13;;;3.60;;
26335;SDS011;14047;50.936;4.654;2024-02-16T09:58:01;8.23;;;4.28;;
26335;SDS011;14047;50.936;4.654;2024-02-16T10:00:27;12.02;;;3.85;;
26335;SDS011;14047;50.936;4.654;2024-02-16T10:02:53;8.05;;;3.80;;
26335;SDS011;14047;50.936;4.654;2024-02-16T10:05:20;15.63;;;4.30;;
26335;SDS011;14047;50.936;4.654;2024-02-16T10:07:46;10.00;;;3.97;;
26335;SDS011;14047;50.936;4.654;2024-02-16T10:13:05;10.98;;;4.10;;
26335;SDS011;14047;50.936;4.654;2024-02-16T10:15:33;11.63;;;4.55;;
26335;SDS011;14047;50.936;4.654;2024-02-16T10:18:03;9.55;;;4.10;;
26335;SDS011;14047;50.936;4.654;2024-02-16T10:20:32;12.55;;;4.40;;
26335;SDS011;14047;50.936;4.654;2024-02-16T10:23:09;10.35;;;4.85;;
26335;SDS011;14047;50.936;4.654;2024-02-16T10:25:37;10.63;;;4.65;;
26335;SDS011;14047;50.936;4.654;2024-02-16T10:28:09;14.00;;;4.65;;
26335;SDS011;14047;50.936;4.654;2024-02-16T10:30:40;12.93;;;4.03;;
26335;SDS011;14047;50.936;4.654;2024-02-16T10:33:10;11.00;;;4.47;;
26335;SDS011;14047;50.936;4.654;2024-02-16T10:35:39;15.25;;;4.93;;
26335;SDS011;14047;50.936;4.654;2024-02-16T10:38:07;11.00;;;5.00;;
26335;SDS011;14047;50.936;4.654;2024-02-16T10:40:41;15.02;;;4.93;;
26335;SDS011;14047;50.936;4.654;2024-02-16T10:43:08;15.52;;;4.97;;
26335;SDS011;14047;50.936;4.654;2024-02-16T10:45:36;14.15;;;5.10;;
26335;SDS011;14047;50.936;4.654;2024-02-16T10:48:03;19.42;;;5.18;;
26335;SDS011;14047;50.936;4.654;2024-02-16T10:50:31;12.50;;;5.07;;
26335;SDS011;14047;50.936;4.654;2024-02-16T10:53:00;15.32;;;5.10;;
26335;SDS011;14047;50.936;4.654;2024-02-16T10:55:31;14.60;;;5.15;;
26335;SDS011;14047;50.936;4.654;2024-02-16T10:57:57;13.43;;;4.82;;
26335;SDS011;14047;50.936;4.654;2024-02-16T11:00:25;16.25;;;5.50;;
26335;SDS011;14047;50.936;4.654;2024-02-16T11:02:58;15.35;;;5.50;;
26335;SDS011;14047;50.936;4.654;2024-02-16T11:08:18;13.63;;;5.70;;
26335;SDS011;14047;50.936;4.654;2024-02-16T11:13:31;15.52;;;5.55;;
26335;SDS011;14047;50.936;4.654;2024-02-16T11:18:28;14.18;;;5.53;;
26335;SDS011;14047;50.936;4.654;2024-02-16T11:20:59;11.63;;;5.63;;
26335;SDS011;14047;50.936;4.654;2024-02-16T11:23:27;13.65;;;5.63;;
26335;SDS011;14047;50.936;4.654;2024-02-16T11:26:03;12.65;;;6.07;;
26335;SDS011;14047;50.936;4.654;2024-02-16T11:28:34;12.15;;;6.13;;
26335;SDS011;14047;50.936;4.654;2024-02-16T11:31:01;15.02;;;5.72;;
26335;SDS011;14047;50.936;4.654;2024-02-16T11:33:28;14.90;;;6.03;;
26335;SDS011;14047;50.936;4.654;2024-02-16T11:35:58;8.98;;;4.18;;
26335;SDS011;14047;50.936;4.654;2024-02-16T11:38:25;16.10;;;6.13;;
26335;SDS011;14047;50.936;4.654;2024-02-16T11:40:56;10.65;;;5.80;;
26335;SDS011;14047;50.936;4.654;2024-02-16T11:43:25;16.55;;;6.25;;
26335;SDS011;14047;50.936;4.654;2024-02-16T11:45:51;15.95;;;6.72;;
26335;SDS011;14047;50.936;4.654;2024-02-16T11:48:25;13.15;;;6.53;;
26335;SDS011;14047;50.936;4.654;2024-02-16T11:50:59;17.25;;;6.20;;
26335;SDS011;14047;50.936;4.654;2024-02-16T11:53:26;17.38;;;6.75;;
26335;SDS011;14047;50.936;4.654;2024-02-16T11:55:56;15.90;;;6.60;;
26335;SDS011;14047;50.936;4.654;2024-02-16T11:58:22;16.42;;;6.60;;
26335;SDS011;14047;50.936;4.654;2024-02-16T12:00:49;17.13;;;6.80;;
26335;SDS011;14047;50.936;4.654;2024-02-16T12:03:23;19.73;;;8.07;;
26335;SDS011;14047;50.936;4.654;2024-02-16T12:05:59;13.20;;;6.32;;
26335;SDS011;14047;50.936;4.654;2024-02-16T12:08:32;16.38;;;8.45;;
26335;SDS011;14047;50.936;4.654;2024-02-16T12:10:59;16.98;;;8.18;;
26335;SDS011;14047;50.936;4.654;2024-02-16T12:13:25;19.05;;;7.40;;
26335;SDS011;14047;50.936;4.654;2024-02-16T12:15:51;16.38;;;7.97;;
26335;SDS011;14047;50.936;4.654;2024-02-16T12:18:21;16.45;;;8.32;;
26335;SDS011;14047;50.936;4.654;2024-02-16T12:21:04;21.80;;;9.18;;
26335;SDS011;14047;50.936;4.654;2024-02-16T12:23:31;17.90;;;7.22;;
26335;SDS011;14047;50.936;4.654;2024-02-16T12:26:01;12.43;;;7.35;;
26335;SDS011;14047;50.936;4.654;2024-02-16T12:28:29;15.30;;;7.45;;
26335;SDS011;14047;50.936;4.654;2024-02-16T12:30:59;11.40;;;6.30;;
26335;SDS011;14047;50.936;4.654;2024-02-16T12:33:25;13.85;;;6.75;;
26335;SDS011;14047;50.936;4.654;2024-02-16T12:35:52;13.77;;;6.35;;
26335;SDS011;14047;50.936;4.654;2024-02-16T12:38:19;9.98;;;5.68;;
26335;SDS011;14047;50.936;4.654;2024-02-16T12:40:48;10.32;;;5.65;;
26335;SDS011;14047;50.936;4.654;2024-02-16T12:43:14;10.35;;;6.32;;
26335;SDS011;14047;50.936;4.654;2024-02-16T12:45:41;9.70;;;6.22;;
26335;SDS011;14047;50.936;4.654;2024-02-16T12:48:07;7.22;;;5.50;;
26335;SDS011;14047;50.936;4.654;2024-02-16T12:50:39;7.50;;;5.63;;
26335;SDS011;14047;50.936;4.654;2024-02-16T12:53:07;12.13;;;6.05;;
26335;SDS011;14047;50.936;4.654;2024-02-16T12:55:33;5.97;;;5.00;;
26335;SDS011;14047;50.936;4.654;2024-02-16T12:57:59;8.25;;;5.03;;
26335;SDS011;14047;50.936;4.654;2024-02-16T13:00:25;8.50;;;5.53;;
26335;SDS011;14047;50.936;4.654;2024-02-16T13:02:51;8.27;;;5.10;;
26335;SDS011;14047;50.936;4.654;2024-02-16T13:05:17;7.32;;;5.53;;
26335;SDS011;14047;50.936;4.654;2024-02-16T13:07:43;9.15;;;6.13;;
26335;SDS011;14047;50.936;4.654;2024-02-16T13:10:09;12.63;;;7.15;;
26335;SDS011;14047;50.936;4.654;2024-02-16T13:12:37;9.45;;;5.78;;
26335;SDS011;14047;50.936;4.654;2024-02-16T13:15:06;8.20;;;6.03;;
26335;SDS011;14047;50.936;4.654;2024-02-16T13:17:33;14.73;;;7.60;;
26335;SDS011;14047;50.936;4.654;2024-02-16T13:19:59;12.85;;;6.70;;
26335;SDS011;14047;50.936;4.654;2024-02-16T13:22:32;15.25;;;7.57;;
26335;SDS011;14047;50.936;4.654;2024-02-16T13:24:59;12.77;;;7.40;;
26335;SDS011;14047;50.936;4.654;2024-02-16T13:27:25;17.15;;;7.57;;
26335;SDS011;14047;50.936;4.654;2024-02-16T13:29:51;11.65;;;6.90;;
26335;SDS011;14047;50.936;4.654;2024-02-16T13:32:17;14.43;;;8.07;;
26335;SDS011;14047;50.936;4.654;2024-02-16T13:34:43;20.23;;;9.02;;
26335;SDS011;14047;50.936;4.654;2024-02-16T13:37:09;11.98;;;7.55;;
26335;SDS011;14047;50.936;4.654;2024-02-16T13:39:35;16.45;;;7.57;;
26335;SDS011;14047;50.936;4.654;2024-02-16T13:42:01;13.60;;;7.25;;
26335;SDS011;14047;50.936;4.654;2024-02-16T13:44:27;11.77;;;7.25;;
26335;SDS011;14047;50.936;4.654;2024-02-16T13:46:53;13.63;;;7.78;;
26335;SDS011;14047;50.936;4.654;2024-02-16T13:49:19;16.17;;;9.55;;
26335;SDS011;14047;50.936;4.654;2024-02-16T13:51:45;38.28;;;15.25;;
26335;SDS011;14047;50.936;4.654;2024-02-16T13:54:11;23.58;;;11.70;;
26335;SDS011;14047;50.936;4.654;2024-02-16T13:56:37;28.65;;;13.65;;
26335;SDS011;14047;50.936;4.654;2024-02-16T13:59:04;26.08;;;13.02;;
26335;SDS011;14047;50.936;4.654;2024-02-16T14:01:32;18.35;;;12.07;;
26335;SDS011;14047;50.936;4.654;2024-02-16T14:03:59;22.52;;;13.00;;
26335;SDS011;14047;50.936;4.654;2024-02-16T14:06:26;18.60;;;11.68;;
26335;SDS011;14047;50.936;4.654;2024-02-16T14:08:52;16.73;;;11.15;;
26335;SDS011;14047;50.936;4.654;2024-02-16T14:11:18;18.98;;;11.55;;
26335;SDS011;14047;50.936;4.654;2024-02-16T14:13:44;16.65;;;11.20;;
26335;SDS011;14047;50.936;4.654;2024-02-16T14:16:11;21.38;;;11.73;;
26335;SDS011;14047;50.936;4.654;2024-02-16T14:18:37;20.33;;;12.48;;
26335;SDS011;14047;50.936;4.654;2024-02-16T14:21:03;16.70;;;11.18;;
26335;SDS011;14047;50.936;4.654;2024-02-16T14:23:29;16.85;;;10.50;;
26335;SDS011;14047;50.936;4.654;2024-02-16T14:25:55;18.17;;;10.80;;
26335;SDS011;14047;50.936;4.654;2024-02-16T14:28:21;13.82;;;8.90;;
26335;SDS011;14047;50.936;4.654;2024-02-16T14:30:47;9.48;;;7.53;;
26335;SDS011;14047;50.936;4.654;2024-02-16T14:33:13;16.23;;;9.57;;
26335;SDS011;14047;50.936;4.654;2024-02-16T14:35:42;26.15;;;11.07;;
26335;SDS011;14047;50.936;4.654;2024-02-16T14:38:09;13.57;;;7.40;;
26335;SDS011;14047;50.936;4.654;2024-02-16T14:40:35;17.08;;;8.40;;
26335;SDS011;14047;50.936;4.654;2024-02-16T14:43:01;20.98;;;10.73;;
26335;SDS011;14047;50.936;4.654;2024-02-16T14:45:27;18.35;;;11.02;;
26335;SDS011;14047;50.936;4.654;2024-02-16T14:47:53;9.68;;;5.97;;
26335;SDS011;14047;50.936;4.654;2024-02-16T14:50:19;9.73;;;5.60;;
26335;SDS011;14047;50.936;4.654;2024-02-16T14:52:45;7.32;;;5.15;;